createdAt,value
2018-02-12T00:02:13.627Z,1.35
2018-02-12T00:04:43.584Z,1.33
2018-02-12T00:07:12.798Z,1.37
2018-02-12T00:09:41.805Z,1.39
2018-02-12T00:12:10.849Z,1.35
2018-02-12T00:14:39.896Z,1.34
2018-02-12T00:17:08.930Z,1.47
2018-02-12T00:22:14.864Z,1.48
2018-02-12T00:24:43.884Z,1.54
2018-02-12T00:27:13.717Z,1.50
2018-02-12T00:29:42.740Z,1.48
2018-02-12T00:32:11.837Z,1.42
2018-02-12T00:34:40.880Z,1.39
2018-02-12T00:37:09.906Z,1.48
2018-02-12T00:39:44.182Z,1.48
2018-02-12T00:42:14.139Z,1.45
2018-02-12T00:44:43.168Z,1.52
2018-02-12T00:47:12.212Z,1.38
2018-02-12T00:49:41.245Z,1.41
2018-02-12T00:52:10.268Z,1.39
2018-02-12T00:54:39.307Z,1.44
2018-02-12T00:57:08.340Z,1.50
2018-02-12T00:59:37.368Z,1.52
2018-02-12T01:02:06.500Z,1.50
2018-02-12T01:04:35.517Z,1.47
2018-02-12T01:07:04.573Z,1.37
2018-02-12T01:09:33.608Z,1.38
2018-02-12T01:12:02.644Z,1.38
2018-02-12T01:14:31.795Z,1.30
2018-02-12T01:17:00.791Z,1.36
2018-02-12T01:19:29.816Z,1.28
2018-02-12T01:21:59.720Z,1.32
2018-02-12T01:24:28.749Z,1.27
2018-02-12T01:26:57.804Z,1.31
2018-02-12T01:29:26.832Z,1.27
2018-02-12T01:31:55.870Z,1.26
2018-02-12T01:34:25.797Z,1.33
2018-02-12T01:36:54.824Z,1.27
2018-02-12T01:39:23.848Z,1.36
2018-02-12T01:41:52.889Z,1.23
2018-02-12T01:44:21.917Z,1.19
2018-02-12T01:46:50.953Z,1.26
2018-02-12T01:49:19.980Z,1.23
2018-02-12T01:51:49.021Z,1.30
2018-02-12T01:54:18.064Z,1.26
2018-02-12T01:56:47.100Z,1.18
2018-02-12T01:59:17.042Z,1.20
2018-02-12T02:01:46.080Z,1.18
2018-02-12T02:04:15.109Z,1.29
2018-02-12T02:06:44.221Z,1.19
2018-02-12T02:09:16.916Z,1.21
2018-02-12T02:11:45.944Z,1.28
2018-02-12T02:14:14.969Z,1.32
2018-02-12T02:16:44.005Z,1.22
2018-02-12T02:19:13.040Z,1.20
2018-02-12T02:21:42.078Z,1.24
2018-02-12T02:24:11.117Z,1.01
2018-02-12T02:26:40.154Z,0.98
2018-02-12T02:29:09.200Z,1.22
2018-02-12T02:31:38.217Z,1.15
2018-02-12T02:34:07.284Z,1.19
2018-02-12T02:36:36.325Z,1.18
2018-02-12T02:39:05.384Z,1.18
2018-02-12T02:41:34.416Z,1.12
2018-02-12T02:44:03.437Z,1.34
2018-02-12T02:46:32.471Z,1.26
2018-02-12T02:49:01.501Z,1.25
2018-02-12T02:51:30.528Z,1.28
2018-02-12T02:53:59.559Z,1.26
2018-02-12T02:56:28.597Z,1.30
2018-02-12T02:58:57.632Z,1.21
2018-02-12T03:01:26.661Z,1.31
2018-02-12T03:03:55.701Z,1.27
2018-02-12T03:06:24.721Z,1.31
2018-02-12T03:08:53.757Z,1.31
2018-02-12T03:11:22.800Z,1.31
2018-02-12T03:13:51.835Z,1.33
2018-02-12T03:16:20.881Z,1.30
2018-02-12T03:18:49.912Z,1.44
2018-02-12T03:21:18.946Z,1.33
2018-02-12T03:23:47.972Z,1.46
2018-02-12T03:26:17.025Z,1.44
2018-02-12T03:28:46.065Z,1.39
2018-02-12T03:31:15.098Z,1.44
2018-02-12T03:33:48.901Z,1.43
2018-02-12T03:36:17.933Z,1.46
2018-02-12T03:38:46.961Z,1.45
2018-02-12T03:41:16.019Z,1.29
2018-02-12T03:43:45.039Z,1.45
2018-02-12T03:46:14.102Z,1.33
2018-02-12T03:48:43.321Z,1.30
2018-02-12T03:51:12.442Z,1.33
2018-02-12T03:53:41.485Z,1.27
2018-02-12T03:58:45.954Z,1.29
2018-02-12T04:01:14.976Z,1.30
2018-02-12T04:03:44.009Z,1.19
2018-02-12T04:06:13.054Z,1.25
2018-02-12T04:08:42.099Z,1.23
2018-02-12T04:11:11.138Z,1.25
2018-02-12T04:13:40.185Z,1.06
2018-02-12T04:16:09.229Z,0.99
2018-02-12T04:18:38.284Z,1.00
2018-02-12T04:21:07.293Z,1.01
2018-02-12T04:23:36.331Z,0.81
2018-02-12T04:28:40.640Z,0.79
2018-02-12T04:31:16.970Z,0.55
2018-02-12T04:33:45.975Z,0.64
2018-02-12T04:36:15.076Z,0.62
2018-02-12T04:38:44.156Z,0.64
2018-02-12T04:41:13.189Z,0.72
2018-02-12T04:43:42.204Z,0.88
2018-02-12T04:46:11.237Z,0.84
2018-02-12T04:48:40.306Z,0.82
2018-02-12T04:51:09.373Z,0.82
2018-02-12T04:53:41.191Z,0.75
2018-02-12T04:56:13.291Z,0.75
2018-02-12T04:58:42.314Z,0.74
2018-02-12T05:01:11.332Z,0.81
2018-02-12T05:03:40.363Z,0.92
2018-02-12T05:06:09.392Z,1.03
2018-02-12T05:08:38.429Z,0.93
2018-02-12T05:13:49.628Z,1.02
2018-02-12T05:16:19.892Z,1.03
2018-02-12T05:18:48.937Z,1.00
2018-02-12T05:21:17.960Z,1.13
2018-02-12T05:23:46.997Z,1.11
2018-02-12T05:26:16.037Z,1.04
2018-02-12T05:28:49.856Z,1.15
2018-02-12T05:31:18.853Z,1.11
2018-02-12T05:33:47.889Z,1.27
2018-02-12T05:36:20.059Z,1.32
2018-02-12T05:38:49.061Z,1.30
2018-02-12T05:41:18.097Z,1.28
2018-02-12T05:43:47.125Z,1.38
2018-02-12T05:46:16.167Z,1.27
2018-02-12T05:48:45.260Z,1.26
2018-02-12T05:51:14.301Z,1.20
2018-02-12T05:53:43.328Z,1.13
2018-02-12T05:56:12.359Z,1.03
2018-02-12T05:58:41.412Z,1.10
2018-02-12T06:01:10.500Z,1.13
2018-02-12T06:03:39.514Z,1.02
2018-02-12T06:06:08.561Z,1.10
2018-02-12T06:08:37.606Z,1.04
2018-02-12T06:13:41.828Z,1.03
2018-02-12T06:16:10.880Z,0.90
2018-02-12T06:18:39.925Z,0.97
2018-02-12T06:21:08.968Z,0.99
2018-02-12T06:23:38.001Z,0.98
2018-02-12T06:26:07.041Z,0.97
2018-02-12T06:28:36.079Z,0.90
2018-02-12T06:31:05.104Z,0.87
2018-02-12T06:36:09.339Z,0.90
2018-02-12T06:38:38.373Z,0.81
2018-02-12T06:41:07.404Z,0.90
2018-02-12T06:43:36.425Z,0.93
2018-02-12T06:46:05.464Z,0.88
2018-02-12T06:48:34.504Z,0.91
2018-02-12T06:51:03.533Z,0.85
2018-02-12T06:53:32.598Z,0.93
2018-02-12T06:56:01.687Z,0.95
2018-02-12T06:58:30.701Z,0.96
2018-02-12T07:00:59.724Z,0.89
2018-02-12T07:03:28.762Z,1.00
2018-02-12T07:05:57.794Z,1.05
2018-02-12T07:08:26.825Z,0.93
2018-02-12T07:10:55.858Z,0.96
2018-02-12T07:13:24.896Z,1.01
2018-02-12T07:15:53.925Z,1.01
2018-02-12T07:18:22.965Z,0.98
2018-02-12T07:20:53.127Z,1.07
2018-02-12T07:23:22.454Z,1.01
2018-02-12T07:25:52.376Z,1.08
2018-02-12T07:28:21.434Z,1.10
2018-02-12T07:30:50.458Z,1.03
2018-02-12T07:35:54.706Z,1.11
2018-02-12T07:38:23.751Z,1.22
2018-02-12T07:40:52.779Z,1.14
2018-02-12T07:43:21.809Z,1.30
2018-02-12T07:45:50.844Z,1.41
2018-02-12T07:48:19.946Z,1.21
2018-02-12T07:50:48.930Z,1.36
2018-02-12T07:53:17.958Z,1.30
2018-02-12T07:55:47.003Z,1.21
2018-02-12T07:58:16.033Z,1.18
2018-02-12T08:00:45.093Z,1.30
2018-02-12T08:03:14.116Z,1.47
2018-02-12T08:05:43.157Z,1.30
2018-02-12T08:08:12.212Z,1.30
2018-02-12T08:10:41.240Z,1.36
2018-02-12T08:13:10.269Z,1.10
2018-02-12T08:15:39.313Z,1.15
2018-02-12T08:18:08.350Z,1.02
2018-02-12T08:20:37.449Z,0.92
2018-02-12T08:23:06.479Z,0.74
2018-02-12T08:25:35.545Z,0.84
2018-02-12T08:28:04.564Z,0.87
2018-02-12T08:30:33.600Z,0.81
2018-02-12T08:33:02.640Z,0.97
2018-02-12T08:35:32.565Z,0.94
2018-02-12T08:38:01.598Z,1.03
2018-02-12T08:40:30.633Z,0.95
2018-02-12T08:42:59.672Z,0.96
2018-02-12T08:45:29.350Z,1.12
2018-02-12T08:47:58.389Z,1.17
2018-02-12T08:50:27.421Z,1.23
2018-02-12T08:52:56.465Z,1.33
2018-02-12T08:55:25.501Z,1.54
2018-02-12T08:57:54.520Z,1.69
2018-02-12T09:00:23.557Z,1.65
2018-02-12T09:02:52.581Z,1.74
2018-02-12T09:08:00.384Z,1.95
2018-02-12T09:10:29.425Z,1.89
2018-02-12T09:12:58.474Z,2.60
2018-02-12T09:15:27.500Z,2.96
2018-02-12T09:18:00.888Z,3.67
2018-02-12T09:20:30.803Z,4.78
2018-02-12T09:22:59.826Z,5.76
2018-02-12T09:28:04.048Z,6.60
2018-02-12T09:30:33.092Z,6.06
2018-02-12T09:33:02.115Z,6.33
2018-02-12T09:35:31.146Z,6.12
2018-02-12T09:38:00.197Z,5.24
2018-02-12T09:40:29.226Z,3.95
2018-02-12T09:43:02.844Z,3.89
2018-02-12T09:45:32.078Z,3.52
2018-02-12T09:48:01.120Z,3.95
2018-02-12T09:50:30.151Z,3.93
2018-02-12T09:52:59.215Z,3.72
2018-02-12T09:55:28.199Z,3.70
2018-02-12T10:00:32.499Z,2.92
2018-02-12T10:03:01.504Z,3.13
2018-02-12T10:05:30.546Z,3.37
2018-02-12T10:07:59.569Z,3.01
2018-02-12T10:10:28.601Z,3.03
2018-02-12T10:12:58.649Z,3.06
2018-02-12T10:15:27.678Z,2.98
2018-02-12T10:17:57.790Z,2.61
2018-02-12T10:20:26.819Z,2.70
2018-02-12T10:22:57.007Z,2.88
2018-02-12T10:25:26.044Z,2.96
2018-02-12T10:27:56.639Z,2.69
2018-02-12T10:30:25.647Z,2.37
2018-02-12T10:32:54.867Z,2.22
2018-02-12T10:35:23.871Z,2.32
2018-02-12T10:37:52.892Z,2.00
2018-02-12T10:40:21.945Z,1.67
2018-02-12T10:44:48.317Z,1.10
2018-02-12T10:47:17.361Z,1.19
2018-02-12T10:49:46.403Z,1.22
2018-02-12T10:52:15.778Z,1.22
2018-02-12T10:54:46.097Z,1.18
2018-02-12T10:57:15.127Z,0.95
2018-02-12T10:59:44.153Z,1.18
2018-02-12T11:04:48.402Z,1.32
2018-02-12T11:07:17.434Z,1.42
2018-02-12T11:09:46.569Z,1.37
2018-02-12T11:12:15.614Z,1.48
2018-02-12T11:14:44.641Z,1.89
2018-02-12T11:17:14.703Z,2.48
2018-02-12T11:19:43.738Z,3.00
2018-02-12T11:22:12.766Z,3.01
2018-02-12T11:24:41.824Z,3.49
2018-02-12T11:27:10.888Z,4.71
2018-02-12T11:32:15.581Z,6.68
2018-02-12T11:34:44.584Z,6.64
2018-02-12T11:37:13.632Z,5.56
2018-02-12T11:39:42.674Z,5.08
2018-02-12T11:44:46.980Z,5.49
2018-02-12T11:47:16.011Z,6.50
2018-02-12T11:49:45.052Z,5.33
2018-02-12T11:52:14.069Z,4.80
2018-02-12T11:54:43.092Z,4.25
2018-02-12T11:57:12.156Z,4.01
2018-02-12T11:59:41.166Z,3.37
2018-02-12T12:02:10.193Z,2.98
2018-02-12T12:04:39.230Z,2.96
2018-02-12T12:07:08.269Z,3.67
2018-02-12T12:09:37.293Z,4.72
2018-02-12T12:12:06.329Z,6.48
2018-02-12T12:14:37.881Z,7.87
2018-02-12T12:17:07.182Z,7.38
2018-02-12T12:19:36.208Z,5.74
2018-02-12T12:22:05.254Z,4.39
2018-02-12T12:27:09.997Z,3.17
2018-02-12T12:29:39.018Z,4.85
2018-02-12T12:32:08.063Z,5.92
2018-02-12T12:34:37.090Z,5.81
2018-02-12T12:37:06.117Z,5.12
2018-02-12T12:39:35.154Z,5.54
2018-02-12T12:42:04.181Z,6.74
2018-02-12T12:47:08.405Z,6.71
2018-02-12T12:49:37.440Z,7.42
2018-02-12T12:52:06.469Z,8.02
2018-02-12T12:54:35.499Z,8.24
2018-02-12T12:57:04.543Z,8.86
2018-02-12T13:02:10.333Z,9.96
2018-02-12T13:04:39.369Z,10.57
2018-02-12T13:07:08.397Z,9.92
2018-02-12T13:09:37.454Z,8.80
2018-02-12T13:12:06.476Z,7.94
2018-02-12T13:14:35.513Z,7.71
2018-02-12T13:17:04.561Z,8.18
2018-02-12T13:19:33.600Z,7.34
2018-02-12T13:24:37.904Z,5.66
2018-02-12T13:27:06.935Z,4.30
2018-02-12T13:29:35.961Z,3.43
2018-02-12T13:32:04.988Z,2.71
2018-02-12T13:34:34.017Z,2.63
2018-02-12T13:37:03.057Z,2.33
2018-02-12T13:39:32.094Z,2.40
2018-02-12T13:42:01.170Z,2.98
2018-02-12T13:44:30.189Z,3.13
2018-02-12T13:46:59.217Z,3.10
2018-02-12T13:49:28.253Z,2.26
2018-02-12T13:51:58.269Z,2.39
2018-02-12T13:54:27.305Z,2.64
2018-02-12T13:56:56.329Z,3.22
2018-02-12T14:02:04.750Z,6.26
2018-02-12T14:04:33.776Z,5.85
2018-02-12T14:07:02.818Z,4.99
2018-02-12T14:09:31.837Z,4.63
2018-02-12T14:12:00.860Z,5.45
2018-02-12T14:14:29.894Z,6.95
2018-02-12T14:16:58.931Z,8.57
2018-02-12T14:19:27.957Z,9.67
2018-02-12T14:21:56.984Z,8.08
2018-02-12T14:24:26.014Z,6.65
2018-02-12T14:26:55.052Z,5.96
2018-02-12T14:29:24.090Z,4.28
2018-02-12T14:31:53.109Z,5.12
2018-02-12T14:34:22.143Z,5.22
2018-02-12T14:36:52.210Z,5.49
2018-02-12T14:39:21.241Z,4.88
2018-02-12T14:41:54.564Z,4.40
2018-02-12T14:44:23.573Z,4.65
2018-02-12T14:46:52.797Z,5.56
2018-02-12T14:49:21.821Z,6.28
2018-02-12T14:51:51.545Z,6.16
2018-02-12T14:54:20.560Z,5.37
2018-02-12T14:56:51.965Z,6.03
2018-02-12T14:59:20.977Z,5.60
2018-02-12T15:01:51.591Z,5.25
2018-02-12T15:04:20.581Z,5.27
2018-02-12T15:06:50.645Z,5.08
2018-02-12T15:09:20.599Z,3.86
2018-02-12T15:14:26.636Z,4.53
2018-02-12T15:16:55.661Z,4.95
2018-02-12T15:19:26.480Z,4.67
2018-02-12T15:21:55.477Z,4.25
2018-02-12T15:24:24.505Z,3.61
2018-02-12T15:26:54.384Z,3.15
2018-02-12T15:29:23.413Z,2.72
2018-02-12T15:34:27.656Z,2.01
2018-02-12T15:36:56.697Z,1.77
2018-02-12T15:39:25.725Z,1.74
2018-02-12T15:41:54.760Z,1.74
2018-02-12T15:44:24.068Z,1.69
2018-02-12T15:46:53.493Z,1.62
2018-02-12T15:49:22.516Z,1.49
2018-02-12T15:54:27.765Z,1.29
2018-02-12T15:56:56.826Z,1.22
2018-02-12T15:59:25.840Z,1.11
2018-02-12T16:01:54.905Z,0.93
2018-02-12T16:04:23.941Z,1.01
2018-02-12T16:06:53.014Z,0.79
2018-02-12T16:09:22.069Z,0.79
2018-02-12T16:11:51.924Z,0.81
2018-02-12T16:14:20.957Z,0.73
2018-02-12T16:16:51.085Z,0.75
2018-02-12T16:19:20.142Z,0.74
2018-02-12T16:21:50.325Z,0.64
2018-02-12T16:24:19.365Z,0.55
2018-02-12T16:26:48.405Z,0.44
2018-02-12T16:29:17.469Z,0.37
2018-02-12T16:31:46.501Z,0.30
2018-02-12T16:34:15.538Z,0.21
2018-02-12T16:36:44.599Z,0.20
2018-02-12T16:39:13.661Z,0.07
2018-02-12T16:41:42.704Z,0.12
2018-02-12T16:44:11.741Z,-0.06
2018-02-12T16:46:47.998Z,-0.16
2018-02-12T16:49:17.021Z,-0.37
2018-02-12T16:51:46.059Z,-0.47
2018-02-12T16:54:15.108Z,-0.46
2018-02-12T16:56:44.151Z,-0.41
2018-02-12T16:59:13.213Z,-0.49
2018-02-12T17:01:42.249Z,-0.55
2018-02-12T17:04:11.294Z,-0.64
2018-02-12T17:06:40.333Z,-0.80
2018-02-12T17:09:09.391Z,-0.80
2018-02-12T17:11:38.418Z,-0.81
2018-02-12T17:14:07.459Z,-0.79
2018-02-12T17:16:36.507Z,-0.76
2018-02-12T17:19:05.545Z,-0.61
2018-02-12T17:21:34.593Z,-0.81
2018-02-12T17:24:03.743Z,-0.77
2018-02-12T17:26:32.830Z,-0.62
2018-02-12T17:29:01.849Z,-0.71
2018-02-12T17:31:30.959Z,-0.61
2018-02-12T17:33:59.998Z,-0.60
2018-02-12T17:36:29.073Z,-0.49
2018-02-12T17:38:58.140Z,-0.27
2018-02-12T17:41:27.154Z,-0.06
2018-02-12T17:43:56.219Z,-0.24
2018-02-12T17:46:25.255Z,-0.22
2018-02-12T17:48:54.312Z,-0.28
2018-02-12T17:51:25.856Z,-0.40
2018-02-12T17:53:54.889Z,-0.35
2018-02-12T17:56:26.031Z,-0.32
2018-02-12T18:04:05.542Z,-0.18
2018-02-12T18:06:34.593Z,-0.15
2018-02-12T18:09:03.641Z,-0.15
2018-02-12T18:11:32.682Z,-0.27
2018-02-12T18:14:01.742Z,-0.29
2018-02-12T18:16:30.814Z,-0.21
2018-02-12T18:18:59.861Z,-0.19
2018-02-12T18:21:28.903Z,-0.28
2018-02-12T18:23:57.988Z,-0.04
2018-02-12T18:26:27.025Z,0.08
2018-02-12T18:28:57.273Z,0.13
2018-02-12T18:31:26.330Z,0.01
2018-02-12T18:33:55.418Z,0.06
2018-02-12T18:36:24.462Z,0.07
2018-02-12T18:38:53.485Z,0.02
2018-02-12T18:41:22.521Z,-0.03
2018-02-12T18:43:51.553Z,-0.13
2018-02-12T18:46:20.663Z,-0.23
2018-02-12T18:48:49.721Z,-0.29
2018-02-12T18:51:18.777Z,-0.53
2018-02-12T18:53:53.776Z,-0.42
2018-02-12T18:56:23.506Z,-0.46
2018-02-12T18:58:52.581Z,-0.51
2018-02-12T19:01:21.619Z,-0.49
2018-02-12T19:03:50.703Z,-0.47
2018-02-12T19:06:19.771Z,-0.38
2018-02-12T19:14:02.431Z,-0.51
2018-02-12T19:16:31.456Z,-0.58
2018-02-12T19:19:00.542Z,-0.56
2018-02-12T19:21:29.586Z,-0.44
2018-02-12T19:23:58.635Z,-0.55
2018-02-12T19:26:27.683Z,-0.53
2018-02-12T19:28:56.722Z,-0.65
2018-02-12T19:31:25.776Z,-0.78
2018-02-12T19:33:54.844Z,-0.72
2018-02-12T19:36:23.863Z,-0.64
2018-02-12T19:38:52.903Z,-0.73
2018-02-12T19:41:21.949Z,-0.75
2018-02-12T19:43:51.010Z,-0.70
2018-02-12T19:46:20.090Z,-0.69
2018-02-12T19:48:49.196Z,-0.83
2018-02-12T19:51:18.221Z,-0.76
2018-02-12T19:53:47.255Z,-0.63
2018-02-12T19:56:16.300Z,-0.79
2018-02-12T19:58:45.353Z,-0.86
2018-02-12T20:01:14.401Z,-0.74
2018-02-12T20:03:43.549Z,-0.76
2018-02-12T20:06:12.642Z,-0.72
2018-02-12T20:08:41.689Z,-0.71
2018-02-12T20:11:10.726Z,-0.69
2018-02-12T20:13:39.979Z,-0.78
2018-02-12T20:16:09.027Z,-0.84
2018-02-12T20:18:38.982Z,-0.80
2018-02-12T20:21:08.032Z,-0.67
2018-02-12T20:23:37.067Z,-0.70
2018-02-12T20:26:06.175Z,-0.81
2018-02-12T20:28:35.194Z,-0.92
2018-02-12T20:31:04.284Z,-0.99
2018-02-12T20:33:34.328Z,-0.96
2018-02-12T20:36:03.378Z,-1.00
2018-02-12T20:38:32.455Z,-0.97
2018-02-12T20:41:01.481Z,-1.02
2018-02-12T20:43:31.410Z,-1.01
2018-02-12T20:46:00.457Z,-1.08
2018-02-12T20:48:29.506Z,-0.99
2018-02-12T20:50:58.562Z,-1.01
2018-02-12T20:53:27.605Z,-1.05
2018-02-12T20:55:56.648Z,-1.07
2018-02-12T20:58:25.693Z,-0.96
2018-02-12T21:00:54.761Z,-0.79
2018-02-12T21:03:23.806Z,-0.72
2018-02-12T21:05:52.845Z,-0.72
2018-02-12T21:08:21.933Z,-0.73
2018-02-12T21:10:50.985Z,-0.79
2018-02-12T21:13:20.048Z,-0.82
2018-02-12T21:15:49.119Z,-0.73
2018-02-12T21:18:18.585Z,-0.78
2018-02-12T21:23:23.654Z,-0.81
2018-02-12T21:25:52.694Z,-0.83
2018-02-12T21:28:21.876Z,-0.95
2018-02-12T21:30:50.909Z,-1.03
2018-02-12T21:33:19.948Z,-1.09
2018-02-12T21:35:49.014Z,-1.10
2018-02-12T21:38:18.074Z,-1.07
2018-02-12T21:40:47.171Z,-1.34
2018-02-12T21:43:16.257Z,-1.40
2018-02-12T21:45:45.316Z,-1.35
2018-02-12T21:48:14.353Z,-1.26
2018-02-12T21:50:43.394Z,-1.14
2018-02-12T21:53:12.433Z,-0.96
2018-02-12T21:55:46.935Z,-1.09
2018-02-12T21:58:21.993Z,-1.03
2018-02-12T22:00:57.138Z,-0.99
2018-02-12T22:03:32.059Z,-0.92
2018-02-12T22:06:07.074Z,-0.80
2018-02-12T22:08:36.370Z,-0.88
2018-02-12T22:11:05.412Z,-0.98
2018-02-12T22:13:34.442Z,-1.02
2018-02-12T22:16:03.569Z,-1.12
2018-02-12T22:18:32.637Z,-1.02
2018-02-12T22:21:01.677Z,-1.05
2018-02-12T22:23:30.907Z,-0.94
2018-02-12T22:26:05.047Z,-0.88
2018-02-12T22:28:37.141Z,-1.09
2018-02-12T22:31:10.976Z,-1.11
2018-02-12T22:33:41.725Z,-1.12
2018-02-12T22:38:50.448Z,-0.96
2018-02-12T22:41:20.428Z,-0.95
2018-02-12T22:43:50.835Z,-0.85
2018-02-12T22:46:23.673Z,-0.85
2018-02-12T22:48:54.715Z,-0.85
2018-02-12T22:51:25.706Z,-0.79
2018-02-12T22:53:56.667Z,-0.87
2018-02-12T22:56:27.311Z,-0.85
2018-02-12T22:58:59.121Z,-0.95
2018-02-12T23:01:30.110Z,-1.04
2018-02-12T23:03:59.412Z,-1.07
